• Join FlightAware (Why Join?)
  • Login
  • US Flag 
09:01PM EST


 

Airport Tracker/Info


-or-


 

Live Flight TrackerFlight Track Log ✈ DAL1388 ✈ 04-May-2013 ✈ KATL - KOKC

Flight Track Log - Related Links

Times and Time Zones

All times are in EDT time to prevent confusion due to time zone crossing. See the DAL1388 flight status page for this flight to view local times or setup timezone preferences in your user account.

Time Position Orientation Groundspeed Altitude Reporting Facility
EDT Latitude Longitude Course Direction KTS MPH feet Rate Location/Type
02:38PM 33.6667 -84.3333 270° West 232 267 4,600  Level Atlanta TRACON
02:39PM 33.7000 -84.2667 59° Northeast 286 329 7,900 2,700 Climbing Atlanta TRACON
02:40PM 33.8001 -84.3922 270° West  Level FlightAware Approximate
02:40PM 33.7833 -84.3000 342° North 338 389 10,000  Level Atlanta TRACON
02:41PM 33.8000 -84.5394 270° West  Level FlightAware Approximate
02:42PM 33.8001 -84.6866 270° West  Level FlightAware Approximate
02:42PM 33.8081 -84.5089 278° West 321 369 12,300  Level Atlanta Center
02:43PM 33.8001 -84.8337 270° West  Level FlightAware Approximate
02:44PM 33.8089 -84.7689 270° West 372 428 19,500  Level Atlanta Center
02:45PM 33.8058 -84.8889 268° West 366 421 21,500 1,860 Climbing Atlanta Center
02:46PM 33.7947 -85.0086 264° West 366 421 23,300 1,740 Climbing Atlanta Center
02:47PM 33.7789 -85.1358 262° West 377 434 25,000 1,800 Climbing Atlanta Center
02:48PM 33.7756 -85.2708 268° West 395 455 26,900 1,620 Climbing Atlanta Center
02:49PM 33.7931 -85.3861 280° West 400 460 28,300 1,500 Climbing Atlanta Center
02:50PM 33.8186 -85.5267 282° West 416 479 30,000 1,560 Climbing Atlanta Center
02:51PM 33.8442 -85.6619 283° West 416 479 31,500 1,380 Climbing Atlanta Center
02:52PM 33.8903 -85.8031 292° West 415 478 32,800 1,320 Climbing Atlanta Center
02:53PM 33.9319 -85.9367 291° West 415 478 34,200 1,260 Climbing Atlanta Center
02:54PM 33.9739 -86.0653 291° West 415 478 35,400 900 Climbing Atlanta Center
02:55PM 34.0344 -86.1894 301° West 415 478 36,000 300 Climbing Atlanta Center
02:56PM 34.0947 -86.3089 301° West 420 483 36,000  Level Atlanta Center
02:57PM 34.1614 -86.4311 303° West 426 490 36,000  Level Atlanta Center
02:58PM 34.2236 -86.5536 302° West 431 496 36,000  Level Atlanta Center
02:59PM 34.2878 -86.6761 302° West 437 503 36,000  Level Atlanta Center
03:00PM 34.3006 -86.7039 299° West 442 509 36,000  Level Memphis Center
03:01PM 34.3667 -86.8294 303° West 442 509 36,000  Level Memphis Center
03:02PM 34.4350 -86.9575 303° West 427 491 36,000  Level Memphis Center
03:03PM 34.4989 -87.0836 302° West 427 491 36,000  Level Memphis Center
03:04PM 34.5558 -87.1947 302° West 427 491 36,000  Level Memphis Center
03:05PM 34.6194 -87.3186 302° West 424 488 36,000  Level Memphis Center
03:06PM 34.6808 -87.4403 302° West 429 494 36,000  Level Memphis Center
03:07PM 34.7653 -87.5711 308° West 437 503 36,000  Level Memphis Center
03:08PM 34.8492 -87.6825 313° West 446 513 36,000  Level Memphis Center
03:09PM 34.9244 -87.7914 310° West 433 498 36,000  Level Memphis Center
03:10PM 35.0122 -87.9028 314° West 443 510 36,000  Level Memphis Center
03:11PM 35.0936 -88.0147 312° West 443 510 36,000  Level Memphis Center
03:12PM 35.1750 -88.1317 310° West 451 519 36,000  Level Memphis Center
03:13PM 35.2583 -88.2464 312° West 451 519 36,000  Level Memphis Center
03:14PM 35.3397 -88.3642 310° West 451 519 36,000  Level Memphis Center
03:15PM 35.4142 -88.4592 314° West 444 511 36,000  Level Memphis Center
03:16PM 35.4931 -88.5772 309° West 444 511 36,000  Level Memphis Center
03:17PM 35.5761 -88.6953 311° West 449 517 36,000  Level Memphis Center
03:18PM 35.6631 -88.8136 312° West 454 522 36,000  Level Memphis Center
03:19PM 35.7417 -88.9272 310° West 454 522 36,000  Level Memphis Center
03:20PM 35.8242 -89.0461 311° West 449 517 36,000  Level Memphis Center
03:21PM 35.9089 -89.1653 311° West 455 524 36,000  Level Memphis Center
03:22PM 35.9892 -89.2847 310° West 455 524 36,000  Level Memphis Center
03:23PM 36.0197 -89.4331 284° West 436 502 36,000  Level Memphis Center
03:24PM 36.0228 -89.5947 271° West 429 494 36,000  Level Memphis Center
03:25PM 36.0153 -89.7436 266° West 434 499 36,000  Level Memphis Center
03:26PM 36.0075 -89.8925 266° West 434 499 36,000  Level Memphis Center
03:27PM 36.0019 -90.0439 267° West 440 506 36,000  Level Memphis Center
03:28PM 35.9958 -90.1850 267° West 440 506 36,000  Level Memphis Center
03:29PM 35.9897 -90.3339 267° West 435 501 36,000  Level Memphis Center
03:30PM 35.9814 -90.4800 266° West 435 501 36,000  Level Memphis Center
03:31PM 35.9747 -90.6289 267° West 435 501 36,000  Level Memphis Center
03:32PM 35.9661 -90.7750 266° West 435 501 36,000  Level Memphis Center
03:33PM 35.9572 -90.9211 266° West 435 501 36,000  Level Memphis Center
03:34PM 35.9522 -91.0672 268° West 435 501 36,000  Level Memphis Center
03:35PM 35.9408 -91.2133 265° West 435 501 36,000  Level Memphis Center
03:36PM 35.9336 -91.3569 266° West 435 501 36,000  Level Memphis Center
03:37PM 35.9306 -91.4850 268° West 429 494 36,000  Level Memphis Center
03:38PM 35.9228 -91.6311 266° West 429 494 36,000  Level Memphis Center
03:39PM 35.9150 -91.7794 266° West 429 494 36,000  Level Memphis Center
03:40PM 35.9028 -91.9278 264° West 429 494 36,000  Level Memphis Center
03:41PM 35.8925 -92.0789 265° West 436 502 36,000  Level Memphis Center
03:42PM 35.8842 -92.2247 266° West 441 507 36,000  Level Memphis Center
03:43PM 35.8733 -92.3706 265° West 441 507 36,000  Level Memphis Center
03:44PM 35.8647 -92.5189 266° West 441 507 36,000  Level Memphis Center
03:45PM 35.8539 -92.6644 265° West 441 507 36,000  Level Memphis Center
03:46PM 35.8447 -92.8103 266° West 441 507 36,000  Level Memphis Center
03:47PM 35.8331 -92.9739 265° West 441 507 36,000  Level Memphis Center
03:48PM 35.8217 -93.1169 264° West 441 507 36,000  Level Memphis Center
03:49PM 35.8119 -93.2675 265° West 441 507 36,000  Level Memphis Center
03:50PM 35.8022 -93.4131 265° West 441 507 36,000  Level Memphis Center
03:51PM 35.7675 -93.5525 253° West 436 502 36,000  Level Memphis Center
03:52PM 35.7264 -93.6917 250° West 431 496 36,000  Level Memphis Center
03:53PM 35.6850 -93.8281 250° West 436 502 36,000  Level Memphis Center
03:54PM 35.6581 -93.9672 257° West 436 502 36,000  Level Memphis Center
03:55PM 35.6517 -94.1153 267° West 431 496 36,000  Level Memphis Center
03:56PM 35.6431 -94.2606 266° West 431 496 36,000  Level Memphis Center
03:57PM 35.6342 -94.4056 266° West 431 496 36,000  Level Memphis Center
03:59PM 35.6203 -94.6711 266° West 437 503 36,000  Level Fort Worth Center
04:00PM 35.6108 -94.8144 265° West 437 503 36,000  Level Fort Worth Center
04:01PM 35.6053 -94.9550 267° West 431 496 36,000  Level Fort Worth Center
04:02PM 35.5956 -95.1008 265° West 426 490 36,000 -540 Level Fort Worth Center
04:03PM 35.5875 -95.2389 266° West 426 490 35,000 -1,020 Descending Fort Worth Center
04:04PM 35.5775 -95.3794 265° West 421 484 34,000 -1,020 Descending Fort Worth Center
04:05PM 35.5672 -95.5203 265° West 426 490 33,000 -1,020 Descending Fort Worth Center
04:06PM 35.5567 -95.6683 265° West 414 476 32,000 -1,020 Descending Fort Worth Center
04:07PM 35.5481 -95.8011 265° West 403 464 31,000 -1,020 Descending Fort Worth Center
04:08PM 35.5372 -95.9342 264° West 403 464 30,000 -1,020 Descending Fort Worth Center
04:09PM 35.5261 -96.0669 264° West 403 464 29,000 -1,020 Descending Fort Worth Center
04:10PM 35.5172 -96.2022 265° West 403 464 28,000 -960 Descending Fort Worth Center
04:11PM 35.5081 -96.3400 265° West 408 470 27,100 -1,260 Descending Fort Worth Center
04:12PM 35.4967 -96.4778 264° West 408 470 25,500 -1,860 Descending Fort Worth Center
04:12PM 35.4928 -96.5264 264° West 405 466 24,600 -2,520 Descending Fort Worth Center
04:12PM 35.4911 -96.5875 268° West 387 445 23,500 -2,400 Descending Fort Worth Center
04:13PM 35.4814 -96.7100 264° West 358 412 21,200 -2,040 Descending Fort Worth Center
04:14PM 35.4694 -96.8197 262° West 318 366 19,400 -1,920 Descending Fort Worth Center
04:15PM 35.4469 -96.9294 256° West 307 353 17,200 -2,160 Descending Fort Worth Center
04:16PM 35.4244 -97.0264 254° West 318 366 15,100 -2,220 Descending Fort Worth Center
04:18PM 35.3975 -97.1486 255° West 318 366 12,600 -2,280 Descending Fort Worth Center
04:18PM 35.3811 -97.2225 255° West 303 349 10,800 -2,340 Descending Fort Worth Center
04:19PM 35.3747 -97.2406 247° West 307 353 10,300 -2,100 Descending Fort Worth Center
04:19PM 35.3583 -97.3092 254° West 288 331 8,900 -2,100 Descending Fort Worth Center
04:20PM 35.3519 -97.3347 253° West 296 341 8,200 -2,100 Descending Fort Worth Center
04:20PM 35.3375 -97.4033 256° West 279 321 6,800 -1,740 Descending Fort Worth Center
04:21PM 35.3292 -97.4111 217° Southwest 291 335 6,500 -1,980 Descending Fort Worth Center
04:21PM 35.2769 -97.4719 224° Southwest 270 311 4,600 -1,980 Descending Fort Worth Center
04:22PM 35.2603 -97.5433 254° West 219 252 3,000 -900 Descending Fort Worth Center
04:23PM 35.2789 -97.5942 294° West 147 169 2,900 -300 Descending Fort Worth Center
04:24PM 35.3186 -97.5942 360° North 123 142 2,400 -600 Descending Fort Worth Center
04:25PM 35.3561 -97.5942 360° North 125 144 1,700 -600 Descending Fort Worth Center
04:27PM 35.3936 -97.6019 350° North 119 137 1,200 -480 Descending Fort Worth Center